sensor_id;sensor_type;location;lat;lon;timestamp;P1;durP1;ratioP1;P2;durP2;ratioP2
46613;SDS011;32338;50.430;6.806;2022-10-17T00:02:02;10.82;;;5.50;;
46613;SDS011;32338;50.430;6.806;2022-10-17T00:04:29;13.55;;;6.65;;
46613;SDS011;32338;50.430;6.806;2022-10-17T00:06:56;7.10;;;5.57;;
46613;SDS011;32338;50.430;6.806;2022-10-17T00:09:22;8.68;;;6.07;;
46613;SDS011;32338;50.430;6.806;2022-10-17T00:11:49;5.97;;;5.40;;
46613;SDS011;32338;50.430;6.806;2022-10-17T00:14:16;9.02;;;5.43;;
46613;SDS011;32338;50.430;6.806;2022-10-17T00:16:44;6.88;;;5.35;;
46613;SDS011;32338;50.430;6.806;2022-10-17T00:19:10;10.10;;;5.63;;
46613;SDS011;32338;50.430;6.806;2022-10-17T00:21:37;8.32;;;5.20;;
46613;SDS011;32338;50.430;6.806;2022-10-17T00:24:04;8.70;;;5.47;;
46613;SDS011;32338;50.430;6.806;2022-10-17T00:26:31;7.20;;;5.97;;
46613;SDS011;32338;50.430;6.806;2022-10-17T00:28:58;6.82;;;5.38;;
46613;SDS011;32338;50.430;6.806;2022-10-17T00:31:24;5.55;;;5.05;;
46613;SDS011;32338;50.430;6.806;2022-10-17T00:33:53;6.50;;;5.53;;
46613;SDS011;32338;50.430;6.806;2022-10-17T00:36:20;10.38;;;5.40;;
46613;SDS011;32338;50.430;6.806;2022-10-17T00:38:49;7.75;;;5.35;;
46613;SDS011;32338;50.430;6.806;2022-10-17T00:41:18;8.85;;;5.60;;
46613;SDS011;32338;50.430;6.806;2022-10-17T00:43:50;9.98;;;5.35;;
46613;SDS011;32338;50.430;6.806;2022-10-17T00:46:19;10.73;;;5.75;;
46613;SDS011;32338;50.430;6.806;2022-10-17T00:48:46;7.45;;;6.35;;
46613;SDS011;32338;50.430;6.806;2022-10-17T00:51:16;6.70;;;5.45;;
46613;SDS011;32338;50.430;6.806;2022-10-17T00:53:46;10.98;;;6.25;;
46613;SDS011;32338;50.430;6.806;2022-10-17T00:56:12;13.73;;;5.32;;
46613;SDS011;32338;50.430;6.806;2022-10-17T00:58:41;11.75;;;5.82;;
46613;SDS011;32338;50.430;6.806;2022-10-17T01:01:08;8.07;;;5.88;;
46613;SDS011;32338;50.430;6.806;2022-10-17T01:03:34;6.43;;;5.55;;
46613;SDS011;32338;50.430;6.806;2022-10-17T01:06:01;5.82;;;5.22;;
46613;SDS011;32338;50.430;6.806;2022-10-17T01:08:29;8.95;;;5.13;;
46613;SDS011;32338;50.430;6.806;2022-10-17T01:10:58;6.50;;;5.68;;
46613;SDS011;32338;50.430;6.806;2022-10-17T01:13:32;12.65;;;5.68;;
46613;SDS011;32338;50.430;6.806;2022-10-17T01:16:06;6.25;;;5.65;;
46613;SDS011;32338;50.430;6.806;2022-10-17T01:18:39;10.90;;;6.20;;
46613;SDS011;32338;50.430;6.806;2022-10-17T01:21:25;10.40;;;5.57;;
46613;SDS011;32338;50.430;6.806;2022-10-17T01:24:22;8.75;;;5.47;;
46613;SDS011;32338;50.430;6.806;2022-10-17T01:30:18;8.65;;;5.18;;
46613;SDS011;32338;50.430;6.806;2022-10-17T01:33:03;9.07;;;6.50;;
46613;SDS011;32338;50.430;6.806;2022-10-17T01:35:36;9.00;;;5.70;;
46613;SDS011;32338;50.430;6.806;2022-10-17T01:38:08;7.35;;;6.20;;
46613;SDS011;32338;50.430;6.806;2022-10-17T01:40:38;7.47;;;5.30;;
46613;SDS011;32338;50.430;6.806;2022-10-17T01:43:13;7.75;;;5.45;;
46613;SDS011;32338;50.430;6.806;2022-10-17T01:45:47;9.00;;;5.32;;
46613;SDS011;32338;50.430;6.806;2022-10-17T01:48:19;6.55;;;5.15;;
46613;SDS011;32338;50.430;6.806;2022-10-17T01:50:49;9.20;;;5.75;;
46613;SDS011;32338;50.430;6.806;2022-10-17T01:53:20;12.00;;;5.70;;
46613;SDS011;32338;50.430;6.806;2022-10-17T01:55:49;8.13;;;5.85;;
46613;SDS011;32338;50.430;6.806;2022-10-17T01:58:21;12.70;;;5.60;;
46613;SDS011;32338;50.430;6.806;2022-10-17T02:00:52;11.40;;;5.68;;
46613;SDS011;32338;50.430;6.806;2022-10-17T02:03:22;9.98;;;6.78;;
46613;SDS011;32338;50.430;6.806;2022-10-17T02:05:53;14.73;;;7.60;;
46613;SDS011;32338;50.430;6.806;2022-10-17T02:08:23;7.60;;;5.78;;
46613;SDS011;32338;50.430;6.806;2022-10-17T02:10:53;5.90;;;5.20;;
46613;SDS011;32338;50.430;6.806;2022-10-17T02:13:26;7.47;;;5.03;;
46613;SDS011;32338;50.430;6.806;2022-10-17T02:16:11;6.18;;;4.95;;
46613;SDS011;32338;50.430;6.806;2022-10-17T02:18:50;6.55;;;4.88;;
46613;SDS011;32338;50.430;6.806;2022-10-17T02:21:38;8.38;;;5.25;;
46613;SDS011;32338;50.430;6.806;2022-10-17T02:24:14;6.45;;;5.60;;
46613;SDS011;32338;50.430;6.806;2022-10-17T02:26:47;6.95;;;5.10;;
46613;SDS011;32338;50.430;6.806;2022-10-17T02:29:20;8.27;;;4.97;;
46613;SDS011;32338;50.430;6.806;2022-10-17T02:31:54;7.95;;;5.13;;
46613;SDS011;32338;50.430;6.806;2022-10-17T02:34:26;8.48;;;5.03;;
46613;SDS011;32338;50.430;6.806;2022-10-17T02:36:57;6.85;;;5.00;;
46613;SDS011;32338;50.430;6.806;2022-10-17T02:39:27;7.95;;;6.25;;
46613;SDS011;32338;50.430;6.806;2022-10-17T02:41:57;6.72;;;5.13;;
46613;SDS011;32338;50.430;6.806;2022-10-17T02:44:27;15.07;;;5.18;;
46613;SDS011;32338;50.430;6.806;2022-10-17T02:46:58;9.48;;;5.25;;
46613;SDS011;32338;50.430;6.806;2022-10-17T02:49:32;11.70;;;5.63;;
46613;SDS011;32338;50.430;6.806;2022-10-17T02:52:02;9.68;;;4.85;;
46613;SDS011;32338;50.430;6.806;2022-10-17T02:54:36;9.63;;;5.32;;
46613;SDS011;32338;50.430;6.806;2022-10-17T02:57:06;9.80;;;4.88;;
46613;SDS011;32338;50.430;6.806;2022-10-17T02:59:37;9.75;;;5.55;;
46613;SDS011;32338;50.430;6.806;2022-10-17T03:02:06;9.52;;;5.03;;
46613;SDS011;32338;50.430;6.806;2022-10-17T03:04:34;7.82;;;4.90;;
46613;SDS011;32338;50.430;6.806;2022-10-17T03:07:00;7.80;;;5.03;;
46613;SDS011;32338;50.430;6.806;2022-10-17T03:09:27;8.18;;;5.45;;
46613;SDS011;32338;50.430;6.806;2022-10-17T03:11:54;7.25;;;5.38;;
46613;SDS011;32338;50.430;6.806;2022-10-17T03:14:20;9.77;;;5.30;;
46613;SDS011;32338;50.430;6.806;2022-10-17T03:16:47;9.48;;;5.43;;
46613;SDS011;32338;50.430;6.806;2022-10-17T03:19:13;7.57;;;5.10;;
46613;SDS011;32338;50.430;6.806;2022-10-17T03:21:41;5.70;;;5.07;;
46613;SDS011;32338;50.430;6.806;2022-10-17T03:24:08;8.98;;;4.78;;
46613;SDS011;32338;50.430;6.806;2022-10-17T03:26:35;5.28;;;4.78;;
46613;SDS011;32338;50.430;6.806;2022-10-17T03:29:01;7.50;;;4.68;;
46613;SDS011;32338;50.430;6.806;2022-10-17T03:31:28;10.45;;;5.05;;
46613;SDS011;32338;50.430;6.806;2022-10-17T03:33:55;12.27;;;4.88;;
46613;SDS011;32338;50.430;6.806;2022-10-17T03:36:21;16.85;;;5.45;;
46613;SDS011;32338;50.430;6.806;2022-10-17T03:38:49;9.75;;;5.38;;
46613;SDS011;32338;50.430;6.806;2022-10-17T03:41:18;10.40;;;5.22;;
46613;SDS011;32338;50.430;6.806;2022-10-17T03:43:45;5.15;;;4.63;;
46613;SDS011;32338;50.430;6.806;2022-10-17T03:46:12;6.00;;;4.80;;
46613;SDS011;32338;50.430;6.806;2022-10-17T03:48:38;11.07;;;4.82;;
46613;SDS011;32338;50.430;6.806;2022-10-17T03:51:06;8.50;;;5.40;;
46613;SDS011;32338;50.430;6.806;2022-10-17T03:53:33;10.07;;;4.97;;
46613;SDS011;32338;50.430;6.806;2022-10-17T03:56:09;7.95;;;5.03;;
46613;SDS011;32338;50.430;6.806;2022-10-17T03:58:37;8.95;;;4.88;;
46613;SDS011;32338;50.430;6.806;2022-10-17T04:01:04;7.55;;;4.30;;
46613;SDS011;32338;50.430;6.806;2022-10-17T04:03:31;6.70;;;4.65;;
46613;SDS011;32338;50.430;6.806;2022-10-17T04:05:58;7.22;;;4.80;;
46613;SDS011;32338;50.430;6.806;2022-10-17T04:08:25;10.25;;;4.60;;
46613;SDS011;32338;50.430;6.806;2022-10-17T04:10:52;6.20;;;4.65;;
46613;SDS011;32338;50.430;6.806;2022-10-17T04:13:20;5.20;;;4.35;;
46613;SDS011;32338;50.430;6.806;2022-10-17T04:15:52;5.43;;;4.70;;
46613;SDS011;32338;50.430;6.806;2022-10-17T04:18:19;7.47;;;4.57;;
46613;SDS011;32338;50.430;6.806;2022-10-17T04:20:46;11.68;;;4.65;;
46613;SDS011;32338;50.430;6.806;2022-10-17T04:23:13;4.80;;;4.38;;
46613;SDS011;32338;50.430;6.806;2022-10-17T04:25:39;9.20;;;5.00;;
46613;SDS011;32338;50.430;6.806;2022-10-17T04:28:06;12.10;;;4.25;;
46613;SDS011;32338;50.430;6.806;2022-10-17T04:30:34;6.10;;;4.47;;
46613;SDS011;32338;50.430;6.806;2022-10-17T04:33:01;10.98;;;4.50;;
46613;SDS011;32338;50.430;6.806;2022-10-17T04:35:28;7.43;;;4.25;;
46613;SDS011;32338;50.430;6.806;2022-10-17T04:37:54;5.13;;;4.50;;
46613;SDS011;32338;50.430;6.806;2022-10-17T04:40:21;9.60;;;4.65;;
46613;SDS011;32338;50.430;6.806;2022-10-17T04:42:48;5.03;;;4.57;;
46613;SDS011;32338;50.430;6.806;2022-10-17T04:45:15;12.80;;;5.43;;
46613;SDS011;32338;50.430;6.806;2022-10-17T04:47:43;6.78;;;4.53;;
46613;SDS011;32338;50.430;6.806;2022-10-17T04:50:10;4.82;;;4.15;;
46613;SDS011;32338;50.430;6.806;2022-10-17T04:52:37;9.55;;;4.25;;
46613;SDS011;32338;50.430;6.806;2022-10-17T04:55:04;6.53;;;3.58;;
46613;SDS011;32338;50.430;6.806;2022-10-17T04:57:33;6.32;;;3.95;;
46613;SDS011;32338;50.430;6.806;2022-10-17T05:00:00;11.68;;;4.00;;
46613;SDS011;32338;50.430;6.806;2022-10-17T05:02:27;5.47;;;4.35;;
46613;SDS011;32338;50.430;6.806;2022-10-17T05:04:55;7.03;;;4.18;;
46613;SDS011;32338;50.430;6.806;2022-10-17T05:07:22;10.20;;;4.40;;
46613;SDS011;32338;50.430;6.806;2022-10-17T05:09:48;7.88;;;4.13;;
46613;SDS011;32338;50.430;6.806;2022-10-17T05:12:15;9.60;;;4.10;;
46613;SDS011;32338;50.430;6.806;2022-10-17T05:14:41;7.78;;;3.67;;
46613;SDS011;32338;50.430;6.806;2022-10-17T05:17:08;4.57;;;4.03;;
46613;SDS011;32338;50.430;6.806;2022-10-17T05:19:34;8.30;;;3.90;;
46613;SDS011;32338;50.430;6.806;2022-10-17T05:22:02;10.38;;;4.43;;
46613;SDS011;32338;50.430;6.806;2022-10-17T05:24:29;8.10;;;3.67;;
46613;SDS011;32338;50.430;6.806;2022-10-17T05:26:56;7.22;;;3.80;;
46613;SDS011;32338;50.430;6.806;2022-10-17T05:29:22;9.73;;;4.10;;
46613;SDS011;32338;50.430;6.806;2022-10-17T05:31:49;6.20;;;4.07;;
46613;SDS011;32338;50.430;6.806;2022-10-17T05:34:15;8.40;;;4.35;;
46613;SDS011;32338;50.430;6.806;2022-10-17T05:36:42;7.63;;;4.45;;
46613;SDS011;32338;50.430;6.806;2022-10-17T05:39:11;6.65;;;3.60;;
46613;SDS011;32338;50.430;6.806;2022-10-17T05:41:38;8.25;;;4.70;;
46613;SDS011;32338;50.430;6.806;2022-10-17T05:44:05;10.68;;;4.45;;
46613;SDS011;32338;50.430;6.806;2022-10-17T05:46:32;6.85;;;4.05;;
46613;SDS011;32338;50.430;6.806;2022-10-17T05:48:58;5.43;;;4.13;;
46613;SDS011;32338;50.430;6.806;2022-10-17T05:51:25;6.13;;;4.40;;
46613;SDS011;32338;50.430;6.806;2022-10-17T05:53:52;8.45;;;4.07;;
46613;SDS011;32338;50.430;6.806;2022-10-17T05:56:19;8.57;;;4.15;;
46613;SDS011;32338;50.430;6.806;2022-10-17T05:58:46;9.23;;;4.22;;
46613;SDS011;32338;50.430;6.806;2022-10-17T06:01:13;6.13;;;4.20;;
46613;SDS011;32338;50.430;6.806;2022-10-17T06:03:39;5.47;;;4.03;;
46613;SDS011;32338;50.430;6.806;2022-10-17T06:06:07;10.32;;;4.70;;
46613;SDS011;32338;50.430;6.806;2022-10-17T06:08:35;4.93;;;4.20;;
46613;SDS011;32338;50.430;6.806;2022-10-17T06:11:01;9.70;;;3.90;;
46613;SDS011;32338;50.430;6.806;2022-10-17T06:13:30;7.43;;;4.95;;
46613;SDS011;32338;50.430;6.806;2022-10-17T06:15:56;8.52;;;4.55;;
46613;SDS011;32338;50.430;6.806;2022-10-17T06:18:23;6.25;;;4.45;;
46613;SDS011;32338;50.430;6.806;2022-10-17T06:20:50;6.28;;;5.05;;
46613;SDS011;32338;50.430;6.806;2022-10-17T06:23:17;8.15;;;4.53;;
46613;SDS011;32338;50.430;6.806;2022-10-17T06:25:44;9.38;;;4.82;;
46613;SDS011;32338;50.430;6.806;2022-10-17T06:28:10;4.38;;;3.90;;
46613;SDS011;32338;50.430;6.806;2022-10-17T06:30:39;7.57;;;4.55;;
46613;SDS011;32338;50.430;6.806;2022-10-17T06:33:06;7.63;;;5.00;;
46613;SDS011;32338;50.430;6.806;2022-10-17T06:35:32;11.50;;;4.38;;
46613;SDS011;32338;50.430;6.806;2022-10-17T06:37:59;8.80;;;4.63;;
46613;SDS011;32338;50.430;6.806;2022-10-17T06:40:26;7.57;;;4.40;;
46613;SDS011;32338;50.430;6.806;2022-10-17T06:42:54;11.13;;;4.50;;
46613;SDS011;32338;50.430;6.806;2022-10-17T06:45:21;6.47;;;4.10;;
46613;SDS011;32338;50.430;6.806;2022-10-17T06:47:49;7.18;;;4.30;;
46613;SDS011;32338;50.430;6.806;2022-10-17T06:50:16;9.27;;;4.18;;
46613;SDS011;32338;50.430;6.806;2022-10-17T06:52:42;5.57;;;4.10;;
46613;SDS011;32338;50.430;6.806;2022-10-17T06:55:09;5.30;;;4.38;;
46613;SDS011;32338;50.430;6.806;2022-10-17T06:57:35;12.38;;;4.13;;
46613;SDS011;32338;50.430;6.806;2022-10-17T07:00:02;8.88;;;4.63;;
46613;SDS011;32338;50.430;6.806;2022-10-17T07:02:30;8.45;;;4.22;;
46613;SDS011;32338;50.430;6.806;2022-10-17T07:04:58;4.53;;;4.13;;
46613;SDS011;32338;50.430;6.806;2022-10-17T07:07:25;11.65;;;3.95;;
46613;SDS011;32338;50.430;6.806;2022-10-17T07:09:52;11.35;;;4.40;;
46613;SDS011;32338;50.430;6.806;2022-10-17T07:12:18;5.50;;;4.88;;
46613;SDS011;32338;50.430;6.806;2022-10-17T07:14:45;9.00;;;3.92;;
46613;SDS011;32338;50.430;6.806;2022-10-17T07:17:14;6.28;;;4.43;;
46613;SDS011;32338;50.430;6.806;2022-10-17T07:19:41;9.00;;;4.18;;
46613;SDS011;32338;50.430;6.806;2022-10-17T07:22:09;6.47;;;4.05;;
46613;SDS011;32338;50.430;6.806;2022-10-17T07:24:39;8.52;;;4.22;;
46613;SDS011;32338;50.430;6.806;2022-10-17T07:27:06;7.72;;;4.15;;
46613;SDS011;32338;50.430;6.806;2022-10-17T07:29:32;4.80;;;4.22;;
46613;SDS011;32338;50.430;6.806;2022-10-17T07:31:59;6.68;;;4.28;;
46613;SDS011;32338;50.430;6.806;2022-10-17T07:34:27;7.45;;;4.68;;
46613;SDS011;32338;50.430;6.806;2022-10-17T07:36:55;8.13;;;4.50;;
46613;SDS011;32338;50.430;6.806;2022-10-17T07:39:23;6.50;;;4.43;;
46613;SDS011;32338;50.430;6.806;2022-10-17T07:41:50;5.93;;;4.47;;
46613;SDS011;32338;50.430;6.806;2022-10-17T07:44:16;5.05;;;4.30;;
46613;SDS011;32338;50.430;6.806;2022-10-17T07:46:43;5.63;;;3.80;;
46613;SDS011;32338;50.430;6.806;2022-10-17T07:49:10;9.90;;;4.28;;
46613;SDS011;32338;50.430;6.806;2022-10-17T07:51:36;8.95;;;3.85;;
46613;SDS011;32338;50.430;6.806;2022-10-17T07:54:03;8.82;;;4.05;;
46613;SDS011;32338;50.430;6.806;2022-10-17T07:56:31;8.80;;;4.20;;
46613;SDS011;32338;50.430;6.806;2022-10-17T07:58:58;7.78;;;4.50;;
46613;SDS011;32338;50.430;6.806;2022-10-17T08:01:25;5.45;;;3.90;;
46613;SDS011;32338;50.430;6.806;2022-10-17T08:03:52;8.98;;;4.15;;
46613;SDS011;32338;50.430;6.806;2022-10-17T08:06:18;3.90;;;3.60;;
46613;SDS011;32338;50.430;6.806;2022-10-17T08:08:45;5.68;;;4.03;;
46613;SDS011;32338;50.430;6.806;2022-10-17T08:11:12;7.65;;;3.70;;
46613;SDS011;32338;50.430;6.806;2022-10-17T08:13:41;6.50;;;3.60;;
46613;SDS011;32338;50.430;6.806;2022-10-17T08:16:08;10.38;;;4.15;;
46613;SDS011;32338;50.430;6.806;2022-10-17T08:18:37;8.63;;;3.95;;
46613;SDS011;32338;50.430;6.806;2022-10-17T08:21:05;5.35;;;3.33;;
46613;SDS011;32338;50.430;6.806;2022-10-17T08:23:32;4.97;;;3.85;;
46613;SDS011;32338;50.430;6.806;2022-10-17T08:26:02;4.72;;;3.40;;
46613;SDS011;32338;50.430;6.806;2022-10-17T08:28:30;7.70;;;4.55;;
46613;SDS011;32338;50.430;6.806;2022-10-17T08:31:02;4.82;;;3.72;;
46613;SDS011;32338;50.430;6.806;2022-10-17T08:33:29;5.68;;;3.80;;
46613;SDS011;32338;50.430;6.806;2022-10-17T08:35:57;4.53;;;3.60;;
46613;SDS011;32338;50.430;6.806;2022-10-17T08:38:24;5.05;;;3.60;;
46613;SDS011;32338;50.430;6.806;2022-10-17T08:40:51;5.22;;;3.75;;
46613;SDS011;32338;50.430;6.806;2022-10-17T08:43:27;5.43;;;3.95;;
46613;SDS011;32338;50.430;6.806;2022-10-17T08:46:05;5.22;;;3.88;;
46613;SDS011;32338;50.430;6.806;2022-10-17T08:48:38;5.60;;;3.63;;
46613;SDS011;32338;50.430;6.806;2022-10-17T08:51:09;5.93;;;4.10;;
46613;SDS011;32338;50.430;6.806;2022-10-17T08:53:42;9.35;;;4.13;;
46613;SDS011;32338;50.430;6.806;2022-10-17T08:56:15;4.57;;;3.67;;
46613;SDS011;32338;50.430;6.806;2022-10-17T08:58:44;9.18;;;3.40;;
46613;SDS011;32338;50.430;6.806;2022-10-17T09:01:13;7.63;;;3.67;;
46613;SDS011;32338;50.430;6.806;2022-10-17T09:03:57;10.15;;;3.85;;
46613;SDS011;32338;50.430;6.806;2022-10-17T09:06:43;10.75;;;3.80;;
46613;SDS011;32338;50.430;6.806;2022-10-17T09:09:20;6.93;;;3.53;;
46613;SDS011;32338;50.430;6.806;2022-10-17T09:12:01;8.70;;;3.88;;
46613;SDS011;32338;50.430;6.806;2022-10-17T09:14:44;7.70;;;3.83;;
46613;SDS011;32338;50.430;6.806;2022-10-17T09:17:24;5.63;;;3.60;;
46613;SDS011;32338;50.430;6.806;2022-10-17T09:20:00;12.25;;;3.90;;
46613;SDS011;32338;50.430;6.806;2022-10-17T09:22:32;7.13;;;3.60;;
46613;SDS011;32338;50.430;6.806;2022-10-17T09:25:04;3.95;;;3.58;;
46613;SDS011;32338;50.430;6.806;2022-10-17T09:27:37;7.90;;;3.30;;
46613;SDS011;32338;50.430;6.806;2022-10-17T09:30:17;3.95;;;3.17;;
46613;SDS011;32338;50.430;6.806;2022-10-17T09:32:51;5.20;;;2.65;;
46613;SDS011;32338;50.430;6.806;2022-10-17T09:35:19;5.47;;;3.33;;
46613;SDS011;32338;50.430;6.806;2022-10-17T09:37:47;6.60;;;3.05;;
46613;SDS011;32338;50.430;6.806;2022-10-17T09:40:18;4.45;;;3.35;;
46613;SDS011;32338;50.430;6.806;2022-10-17T09:42:48;4.50;;;3.20;;
46613;SDS011;32338;50.430;6.806;2022-10-17T09:45:16;4.72;;;3.20;;
46613;SDS011;32338;50.430;6.806;2022-10-17T09:47:49;5.30;;;2.78;;
46613;SDS011;32338;50.430;6.806;2022-10-17T09:50:27;3.47;;;2.65;;
46613;SDS011;32338;50.430;6.806;2022-10-17T09:52:55;4.80;;;2.70;;
46613;SDS011;32338;50.430;6.806;2022-10-17T09:55:25;11.02;;;2.97;;
46613;SDS011;32338;50.430;6.806;2022-10-17T09:58:01;5.13;;;2.40;;
46613;SDS011;32338;50.430;6.806;2022-10-17T10:00:31;3.88;;;2.55;;
46613;SDS011;32338;50.430;6.806;2022-10-17T10:03:12;4.43;;;2.63;;
46613;SDS011;32338;50.430;6.806;2022-10-17T10:05:56;4.93;;;2.53;;
46613;SDS011;32338;50.430;6.806;2022-10-17T10:08:25;4.07;;;2.20;;
46613;SDS011;32338;50.430;6.806;2022-10-17T10:10:56;5.45;;;2.60;;
46613;SDS011;32338;50.430;6.806;2022-10-17T10:13:24;5.80;;;2.85;;
46613;SDS011;32338;50.430;6.806;2022-10-17T10:15:52;3.75;;;3.05;;
46613;SDS011;32338;50.430;6.806;2022-10-17T10:18:28;6.13;;;2.50;;
46613;SDS011;32338;50.430;6.806;2022-10-17T10:21:04;5.43;;;3.05;;
46613;SDS011;32338;50.430;6.806;2022-10-17T10:23:33;7.35;;;2.70;;
46613;SDS011;32338;50.430;6.806;2022-10-17T10:26:04;8.45;;;2.72;;
46613;SDS011;32338;50.430;6.806;2022-10-17T10:28:50;6.10;;;3.00;;
46613;SDS011;32338;50.430;6.806;2022-10-17T10:31:24;4.75;;;2.75;;
46613;SDS011;32338;50.430;6.806;2022-10-17T10:33:54;8.57;;;2.25;;
46613;SDS011;32338;50.430;6.806;2022-10-17T10:36:21;10.88;;;2.53;;
46613;SDS011;32338;50.430;6.806;2022-10-17T10:38:51;9.52;;;2.90;;
46613;SDS011;32338;50.430;6.806;2022-10-17T10:41:20;8.73;;;2.55;;
46613;SDS011;32338;50.430;6.806;2022-10-17T10:43:47;4.53;;;2.47;;
46613;SDS011;32338;50.430;6.806;2022-10-17T10:46:17;3.47;;;2.50;;
46613;SDS011;32338;50.430;6.806;2022-10-17T10:48:49;3.92;;;2.72;;
46613;SDS011;32338;50.430;6.806;2022-10-17T10:51:20;3.97;;;2.60;;
46613;SDS011;32338;50.430;6.806;2022-10-17T10:53:52;10.43;;;2.35;;
46613;SDS011;32338;50.430;6.806;2022-10-17T10:56:24;7.20;;;2.92;;
46613;SDS011;32338;50.430;6.806;2022-10-17T10:58:56;4.85;;;2.65;;
46613;SDS011;32338;50.430;6.806;2022-10-17T11:01:28;16.50;;;3.00;;
46613;SDS011;32338;50.430;6.806;2022-10-17T11:04:04;9.70;;;3.50;;
46613;SDS011;32338;50.430;6.806;2022-10-17T11:06:42;5.60;;;2.35;;
46613;SDS011;32338;50.430;6.806;2022-10-17T11:09:12;4.65;;;2.70;;
46613;SDS011;32338;50.430;6.806;2022-10-17T11:11:47;4.30;;;2.42;;
46613;SDS011;32338;50.430;6.806;2022-10-17T11:14:20;4.70;;;2.20;;
46613;SDS011;32338;50.430;6.806;2022-10-17T11:17:00;6.30;;;2.50;;
46613;SDS011;32338;50.430;6.806;2022-10-17T11:19:36;4.80;;;2.13;;
46613;SDS011;32338;50.430;6.806;2022-10-17T11:22:13;9.60;;;2.47;;
46613;SDS011;32338;50.430;6.806;2022-10-17T11:24:42;3.95;;;1.92;;
46613;SDS011;32338;50.430;6.806;2022-10-17T11:27:14;13.55;;;2.30;;
46613;SDS011;32338;50.430;6.806;2022-10-17T11:29:40;4.85;;;2.38;;
46613;SDS011;32338;50.430;6.806;2022-10-17T11:32:10;4.82;;;2.15;;
46613;SDS011;32338;50.430;6.806;2022-10-17T11:34:44;7.07;;;2.80;;
46613;SDS011;32338;50.430;6.806;2022-10-17T11:37:16;5.43;;;2.45;;
46613;SDS011;32338;50.430;6.806;2022-10-17T11:39:48;2.67;;;2.30;;
46613;SDS011;32338;50.430;6.806;2022-10-17T11:42:19;3.95;;;2.20;;
46613;SDS011;32338;50.430;6.806;2022-10-17T11:44:52;3.28;;;2.28;;
46613;SDS011;32338;50.430;6.806;2022-10-17T11:47:30;6.50;;;2.03;;
46613;SDS011;32338;50.430;6.806;2022-10-17T11:50:04;7.32;;;2.55;;
46613;SDS011;32338;50.430;6.806;2022-10-17T11:52:42;3.25;;;2.40;;
46613;SDS011;32338;50.430;6.806;2022-10-17T11:55:16;7.85;;;2.25;;
46613;SDS011;32338;50.430;6.806;2022-10-17T11:57:55;6.00;;;1.98;;
46613;SDS011;32338;50.430;6.806;2022-10-17T12:00:37;12.75;;;2.63;;
46613;SDS011;32338;50.430;6.806;2022-10-17T12:03:28;5.25;;;2.50;;
46613;SDS011;32338;50.430;6.806;2022-10-17T12:06:03;7.20;;;2.20;;
46613;SDS011;32338;50.430;6.806;2022-10-17T12:08:40;12.98;;;2.50;;
46613;SDS011;32338;50.430;6.806;2022-10-17T12:11:13;9.52;;;2.30;;
46613;SDS011;32338;50.430;6.806;2022-10-17T12:13:51;4.30;;;1.98;;
46613;SDS011;32338;50.430;6.806;2022-10-17T12:19:26;6.10;;;2.03;;
46613;SDS011;32338;50.430;6.806;2022-10-17T12:21:57;8.23;;;2.03;;
46613;SDS011;32338;50.430;6.806;2022-10-17T12:24:30;5.38;;;2.33;;
46613;SDS011;32338;50.430;6.806;2022-10-17T12:30:18;10.88;;;2.00;;
46613;SDS011;32338;50.430;6.806;2022-10-17T12:35:46;8.45;;;2.08;;
46613;SDS011;32338;50.430;6.806;2022-10-17T12:38:24;16.35;;;3.03;;
46613;SDS011;32338;50.430;6.806;2022-10-17T12:40:57;8.15;;;2.13;;
46613;SDS011;32338;50.430;6.806;2022-10-17T12:43:34;11.98;;;2.30;;
46613;SDS011;32338;50.430;6.806;2022-10-17T12:52:19;7.63;;;2.03;;
46613;SDS011;32338;50.430;6.806;2022-10-17T12:54:58;4.85;;;2.35;;
46613;SDS011;32338;50.430;6.806;2022-10-17T12:57:34;6.18;;;2.00;;
46613;SDS011;32338;50.430;6.806;2022-10-17T13:00:12;4.50;;;2.00;;
46613;SDS011;32338;50.430;6.806;2022-10-17T13:02:42;6.75;;;1.70;;
46613;SDS011;32338;50.430;6.806;2022-10-17T13:05:17;4.82;;;2.22;;
46613;SDS011;32338;50.430;6.806;2022-10-17T13:07:49;6.72;;;2.10;;
46613;SDS011;32338;50.430;6.806;2022-10-17T13:10:18;4.00;;;1.88;;
46613;SDS011;32338;50.430;6.806;2022-10-17T13:12:48;4.82;;;1.65;;
46613;SDS011;32338;50.430;6.806;2022-10-17T13:15:18;7.13;;;1.85;;
46613;SDS011;32338;50.430;6.806;2022-10-17T13:17:53;4.93;;;1.33;;
46613;SDS011;32338;50.430;6.806;2022-10-17T13:20:22;8.25;;;1.95;;
46613;SDS011;32338;50.430;6.806;2022-10-17T13:22:52;4.85;;;2.15;;
46613;SDS011;32338;50.430;6.806;2022-10-17T13:25:20;5.47;;;1.65;;
46613;SDS011;32338;50.430;6.806;2022-10-17T13:27:47;6.85;;;2.45;;
46613;SDS011;32338;50.430;6.806;2022-10-17T13:30:20;4.28;;;1.63;;
46613;SDS011;32338;50.430;6.806;2022-10-17T13:32:50;7.32;;;1.65;;
46613;SDS011;32338;50.430;6.806;2022-10-17T13:35:21;8.75;;;1.60;;
46613;SDS011;32338;50.430;6.806;2022-10-17T13:37:50;7.03;;;1.30;;
46613;SDS011;32338;50.430;6.806;2022-10-17T13:40:20;4.13;;;1.35;;
46613;SDS011;32338;50.430;6.806;2022-10-17T13:42:49;4.32;;;1.13;;
46613;SDS011;32338;50.430;6.806;2022-10-17T13:45:18;6.40;;;1.58;;
46613;SDS011;32338;50.430;6.806;2022-10-17T13:47:47;9.02;;;1.17;;
46613;SDS011;32338;50.430;6.806;2022-10-17T13:50:22;6.47;;;1.42;;
46613;SDS011;32338;50.430;6.806;2022-10-17T13:55:51;7.13;;;1.40;;
46613;SDS011;32338;50.430;6.806;2022-10-17T13:58:20;4.95;;;1.20;;
46613;SDS011;32338;50.430;6.806;2022-10-17T14:00:47;5.03;;;1.30;;
46613;SDS011;32338;50.430;6.806;2022-10-17T14:03:16;7.15;;;1.40;;
46613;SDS011;32338;50.430;6.806;2022-10-17T14:08:38;5.80;;;1.13;;
46613;SDS011;32338;50.430;6.806;2022-10-17T14:11:15;6.13;;;1.27;;
46613;SDS011;32338;50.430;6.806;2022-10-17T14:13:48;6.88;;;1.45;;
46613;SDS011;32338;50.430;6.806;2022-10-17T14:16:17;5.82;;;1.35;;
46613;SDS011;32338;50.430;6.806;2022-10-17T14:18:45;5.35;;;1.40;;
46613;SDS011;32338;50.430;6.806;2022-10-17T14:21:23;5.45;;;1.25;;
46613;SDS011;32338;50.430;6.806;2022-10-17T14:24:11;4.97;;;1.83;;
46613;SDS011;32338;50.430;6.806;2022-10-17T14:26:46;5.85;;;1.10;;
46613;SDS011;32338;50.430;6.806;2022-10-17T14:29:21;4.32;;;1.20;;
46613;SDS011;32338;50.430;6.806;2022-10-17T14:31:49;9.38;;;1.48;;
46613;SDS011;32338;50.430;6.806;2022-10-17T14:34:25;6.97;;;1.00;;
46613;SDS011;32338;50.430;6.806;2022-10-17T14:36:55;4.63;;;1.27;;
46613;SDS011;32338;50.430;6.806;2022-10-17T14:39:22;4.28;;;1.30;;
46613;SDS011;32338;50.430;6.806;2022-10-17T14:41:51;8.98;;;1.75;;
46613;SDS011;32338;50.430;6.806;2022-10-17T14:44:21;7.13;;;1.35;;
46613;SDS011;32338;50.430;6.806;2022-10-17T14:46:51;8.00;;;1.38;;
46613;SDS011;32338;50.430;6.806;2022-10-17T14:49:27;5.15;;;1.58;;
46613;SDS011;32338;50.430;6.806;2022-10-17T14:54:51;6.20;;;1.45;;
46613;SDS011;32338;50.430;6.806;2022-10-17T14:57:21;5.18;;;1.60;;
46613;SDS011;32338;50.430;6.806;2022-10-17T14:59:51;8.32;;;1.75;;
46613;SDS011;32338;50.430;6.806;2022-10-17T15:02:18;4.53;;;1.20;;
46613;SDS011;32338;50.430;6.806;2022-10-17T15:04:45;11.95;;;1.40;;
46613;SDS011;32338;50.430;6.806;2022-10-17T15:07:12;4.82;;;1.55;;
46613;SDS011;32338;50.430;6.806;2022-10-17T15:09:40;6.60;;;1.30;;
46613;SDS011;32338;50.430;6.806;2022-10-17T15:12:09;5.97;;;2.05;;
46613;SDS011;32338;50.430;6.806;2022-10-17T15:14:43;10.57;;;1.50;;
46613;SDS011;32338;50.430;6.806;2022-10-17T15:17:18;4.25;;;1.23;;
46613;SDS011;32338;50.430;6.806;2022-10-17T15:19:48;6.72;;;1.75;;
46613;SDS011;32338;50.430;6.806;2022-10-17T15:22:15;11.30;;;1.38;;
46613;SDS011;32338;50.430;6.806;2022-10-17T15:25:00;7.40;;;1.58;;
46613;SDS011;32338;50.430;6.806;2022-10-17T15:27:27;4.15;;;1.45;;
46613;SDS011;32338;50.430;6.806;2022-10-17T15:29:56;7.03;;;1.63;;
46613;SDS011;32338;50.430;6.806;2022-10-17T15:32:26;4.10;;;1.60;;